Time;durP1;ratioP1;P1;durP2;ratioP2;P2;SDS_P1;SDS_P2;PMS_P1;PMS_P2;Temp;Humidity;BMP_temperature;BMP_pressure;BME280_temperature;BME280_humidity;BME280_pressure;Samples;Min_cycle;Max_cycle;Signal;HPM_P1;HPM_P2
2021/03/07 00:00:26;;;;;;;9.97;4.60;;;-3.80;41.30;;;;;;4325005;33;20148;-35
2021/03/07 00:02:52;;;;;;;10.13;4.93;;;-3.90;41.10;;;;;;4327649;33;20082;-36
2021/03/07 00:05:19;;;;;;;7.80;3.67;;;-3.80;41.10;;;;;;4327854;33;20471;-36
2021/03/07 00:07:46;;;;;;;9.40;3.67;;;-3.90;40.90;;;;;;4330304;33;20073;-36
2021/03/07 00:10:15;;;;;;;10.10;4.37;;;-4.00;40.80;;;;;;4342665;33;20067;-35
2021/03/07 00:12:41;;;;;;;11.63;3.13;;;-4.00;40.90;;;;;;4342812;33;20594;-35
2021/03/07 00:15:11;;;;;;;13.47;6.00;;;-4.10;40.80;;;;;;4357537;32;20515;-32
2021/03/07 00:17:38;;;;;;;9.17;4.30;;;-4.10;40.80;;;;;;4372422;32;20510;-32
2021/03/07 00:20:06;;;;;;;7.57;4.00;;;-4.10;40.90;;;;;;4371915;32;20058;-32
2021/03/07 00:22:33;;;;;;;9.77;4.80;;;-4.20;40.90;;;;;;4372208;32;20156;-32
2021/03/07 00:24:59;;;;;;;14.73;5.60;;;-4.20;40.90;;;;;;4372410;32;20070;-32
2021/03/07 00:27:26;;;;;;;16.17;5.27;;;-4.20;40.90;;;;;;4327083;33;20079;-31
2021/03/07 00:29:52;;;;;;;12.13;4.30;;;-4.20;41.00;;;;;;4327056;33;20509;-33
2021/03/07 00:32:19;;;;;;;9.80;4.37;;;-4.10;41.10;;;;;;4340542;32;20098;-31
2021/03/07 00:34:45;;;;;;;10.87;5.90;;;-4.10;41.10;;;;;;4357423;32;20157;-32
2021/03/07 00:37:12;;;;;;;20.03;7.00;;;-4.10;41.20;;;;;;4329636;33;20089;-33
2021/03/07 00:39:38;;;;;;;11.33;5.03;;;-4.10;41.30;;;;;;4342071;33;20541;-32
2021/03/07 00:42:05;;;;;;;10.00;4.03;;;-4.20;41.10;;;;;;4342115;33;20070;-32
2021/03/07 00:44:31;;;;;;;11.97;4.40;;;-4.10;41.10;;;;;;4342161;33;20082;-32
2021/03/07 00:46:58;;;;;;;15.23;5.73;;;-4.10;41.20;;;;;;4341853;33;20055;-32
2021/03/07 00:49:28;;;;;;;10.93;4.53;;;-4.10;41.30;;;;;;4341913;33;20098;-32
2021/03/07 00:51:55;;;;;;;11.00;4.77;;;-4.10;41.30;;;;;;4317673;33;20090;-33
2021/03/07 00:54:22;;;;;;;14.37;7.23;;;-4.10;41.40;;;;;;4341973;33;20078;-32
2021/03/07 00:56:48;;;;;;;14.17;7.20;;;-4.10;41.60;;;;;;4329655;33;20082;-34
2021/03/07 00:59:15;;;;;;;16.57;8.40;;;-4.10;41.90;;;;;;4354341;32;20572;-36
2021/03/07 01:01:41;;;;;;;13.07;6.20;;;-4.10;42.20;;;;;;4343919;32;20069;-34
2021/03/07 01:04:08;;;;;;;22.93;11.50;;;-4.10;42.50;;;;;;4344392;32;20297;-37
2021/03/07 01:06:34;;;;;;;11.83;6.23;;;-4.10;42.90;;;;;;4332293;32;20086;-35
2021/03/07 01:09:01;;;;;;;21.07;8.53;;;-4.10;43.00;;;;;;4387650;32;20076;-33
2021/03/07 01:11:27;;;;;;;18.30;8.97;;;-4.10;43.10;;;;;;4377674;32;20097;-36
2021/03/07 01:13:54;;;;;;;15.17;7.27;;;-4.10;43.20;;;;;;4404186;32;20076;-34
2021/03/07 01:16:21;;;;;;;19.53;8.70;;;-4.00;43.20;;;;;;4377293;32;20065;-33
2021/03/07 01:18:48;;;;;;;14.03;7.17;;;-4.00;43.20;;;;;;4390269;32;20061;-34
2021/03/07 01:21:15;;;;;;;14.97;7.30;;;-3.90;43.40;;;;;;4404209;32;20081;-33
2021/03/07 01:23:41;;;;;;;16.20;6.93;;;-3.90;43.30;;;;;;4403875;32;20050;-36
2021/03/07 01:26:08;;;;;;;14.33;6.73;;;-3.80;43.30;;;;;;4403573;32;20068;-33
2021/03/07 01:28:35;;;;;;;18.73;8.90;;;-3.70;43.10;;;;;;4389756;32;20068;-33
2021/03/07 01:31:01;;;;;;;17.83;8.07;;;-3.70;43.10;;;;;;4376903;32;20071;-33
2021/03/07 01:33:28;;;;;;;18.03;7.53;;;-3.70;43.10;;;;;;4404102;32;20489;-33
2021/03/07 01:35:54;;;;;;;22.20;8.80;;;-3.70;43.10;;;;;;4404067;32;20053;-34
2021/03/07 01:38:21;;;;;;;17.93;8.07;;;-3.70;43.20;;;;;;4389472;32;20154;-33
2021/03/07 01:40:51;;;;;;;17.10;8.63;;;-3.70;43.20;;;;;;4389776;32;20080;-33
2021/03/07 01:43:20;;;;;;;13.03;6.73;;;-3.70;43.30;;;;;;4404100;32;20053;-34
2021/03/07 01:45:47;;;;;;;16.33;8.80;;;-3.60;43.30;;;;;;4376959;32;20191;-33
2021/03/07 01:48:14;;;;;;;13.47;7.90;;;-3.60;43.30;;;;;;4389740;32;20064;-34
2021/03/07 01:50:45;;;;;;;18.00;9.10;;;-3.60;43.30;;;;;;4403616;32;20113;-34
2021/03/07 01:53:12;;;;;;;16.00;7.83;;;-3.60;43.40;;;;;;4403482;32;20526;-36
2021/03/07 01:55:39;;;;;;;17.23;7.47;;;-3.60;43.30;;;;;;4389591;32;20061;-36
2021/03/07 01:58:26;;;;;;;17.00;7.00;;;-3.60;43.30;;;;;;4389619;32;20481;-36
2021/03/07 02:00:52;;;;;;;17.10;8.40;;;-3.50;43.20;;;;;;4403483;32;20076;-36
2021/03/07 02:03:19;;;;;;;16.07;7.70;;;-3.50;43.00;;;;;;4343669;32;20158;-37
2021/03/07 02:05:46;;;;;;;29.40;11.67;;;-3.50;42.80;;;;;;4343427;32;20668;-32
2021/03/07 02:08:13;;;;;;;20.33;10.33;;;-3.50;42.90;;;;;;4343195;32;20079;-33
2021/03/07 02:10:43;;;;;;;14.37;8.03;;;-3.50;43.00;;;;;;4341262;32;20522;-34
2021/03/07 02:13:15;;;;;;;16.47;7.87;;;-3.60;42.70;;;;;;4328833;33;20081;-35
2021/03/07 02:15:45;;;;;;;13.20;7.20;;;-3.70;42.40;;;;;;4340665;33;20086;-36
2021/03/07 02:18:12;;;;;;;17.47;8.63;;;-3.90;42.10;;;;;;4328737;33;20143;-34
2021/03/07 02:21:02;;;;;;;17.00;7.97;;;-4.10;42.20;;;;;;4328762;33;20070;-33
2021/03/07 02:23:31;;;;;;;17.20;8.47;;;-4.20;42.20;;;;;;4314899;33;20198;-34
2021/03/07 02:25:58;;;;;;;21.17;9.70;;;-4.30;42.20;;;;;;4286850;33;20178;-36
2021/03/07 02:28:25;;;;;;;22.00;8.63;;;-4.40;42.30;;;;;;4299336;33;20563;-39
2021/03/07 02:30:53;;;;;;;21.03;8.90;;;-4.50;42.20;;;;;;4296698;33;20234;-37
2021/03/07 02:33:40;;;;;;;19.30;8.67;;;-4.60;42.20;;;;;;4299533;33;20478;-37
2021/03/07 02:36:14;;;;;;;20.70;7.47;;;-4.60;42.40;;;;;;4301672;33;20085;-33
2021/03/07 02:38:40;;;;;;;15.33;7.67;;;-4.60;42.40;;;;;;4313922;33;20094;-34
2021/03/07 02:41:07;;;;;;;17.70;7.53;;;-4.70;42.40;;;;;;4301710;33;20067;-34
2021/03/07 02:43:42;;;;;;;16.67;7.67;;;-4.70;42.50;;;;;;4325879;33;20086;-33
2021/03/07 02:46:12;;;;;;;13.75;7.28;;;-4.70;42.50;;;;;;4325527;33;20522;-34
2021/03/07 02:48:38;;;;;;;15.43;7.90;;;-4.70;42.50;;;;;;4314146;33;20177;-33
2021/03/07 02:51:05;;;;;;;15.83;7.17;;;-4.70;42.40;;;;;;4289677;33;20055;-34
2021/03/07 02:53:32;;;;;;;15.20;6.83;;;-4.70;42.40;;;;;;4303382;33;20063;-33
2021/03/07 02:56:16;;;;;;;14.67;6.93;;;-4.70;42.30;;;;;;4340457;33;20156;-32
2021/03/07 02:58:43;;;;;;;19.80;8.70;;;-4.70;42.40;;;;;;4306632;33;20514;-33
2021/03/07 03:01:14;;;;;;;23.27;9.13;;;-4.70;42.50;;;;;;4322099;32;20077;-32
2021/03/07 03:03:44;;;;;;;17.43;7.07;;;-4.70;42.50;;;;;;4333553;33;20586;-32
2021/03/07 03:06:12;;;;;;;19.33;7.40;;;-4.70;42.50;;;;;;4316219;33;20083;-32
2021/03/07 03:08:40;;;;;;;15.37;7.50;;;-4.60;42.50;;;;;;4301442;33;20067;-33
2021/03/07 03:11:06;;;;;;;23.67;7.67;;;-4.60;42.50;;;;;;4313568;33;20087;-33
2021/03/07 03:13:35;;;;;;;13.63;7.60;;;-4.60;42.60;;;;;;4313496;33;20081;-34
2021/03/07 03:16:04;;;;;;;17.50;10.03;;;-4.50;42.70;;;;;;4301760;33;20095;-32
2021/03/07 03:18:31;;;;;;;24.03;10.67;;;-4.50;42.80;;;;;;4313488;33;20161;-33
2021/03/07 03:21:06;;;;;;;26.00;11.63;;;-4.40;43.00;;;;;;4272581;33;20071;-33
2021/03/07 03:23:32;;;;;;;24.20;9.57;;;-4.40;43.10;;;;;;4296528;33;20634;-33
2021/03/07 03:25:59;;;;;;;19.07;9.43;;;-4.40;43.10;;;;;;4285479;33;20067;-33
2021/03/07 03:28:25;;;;;;;21.93;8.77;;;-4.50;43.00;;;;;;4263303;33;20090;-34
2021/03/07 03:30:53;;;;;;;22.57;9.20;;;-4.50;43.10;;;;;;4287660;33;20526;-34
2021/03/07 03:33:21;;;;;;;18.17;8.87;;;-4.60;43.20;;;;;;4299352;33;20079;-34
2021/03/07 03:35:49;;;;;;;20.67;7.90;;;-4.60;43.30;;;;;;4341482;33;20506;-34
2021/03/07 03:38:15;;;;;;;13.63;7.43;;;-4.60;43.30;;;;;;4342946;33;20086;-34
2021/03/07 03:40:42;;;;;;;11.40;5.70;;;-4.70;43.30;;;;;;4330437;33;20067;-37
2021/03/07 03:43:10;;;;;;;11.37;5.70;;;-4.70;43.40;;;;;;4330362;33;20082;-33
2021/03/07 03:45:41;;;;;;;14.57;7.63;;;-4.70;43.50;;;;;;4322905;32;20090;-35
2021/03/07 03:48:12;;;;;;;12.53;6.03;;;-4.60;43.60;;;;;;4345254;32;20611;-37
2021/03/07 03:50:42;;;;;;;16.53;8.10;;;-4.60;43.50;;;;;;4344908;32;20108;-36
2021/03/07 03:53:19;;;;;;;16.63;7.47;;;-4.50;43.60;;;;;;4362282;32;20085;-33
2021/03/07 03:55:50;;;;;;;14.03;6.40;;;-4.40;43.70;;;;;;4376146;32;20168;-32
2021/03/07 03:58:21;;;;;;;12.13;6.53;;;-4.40;43.70;;;;;;4332740;32;20191;-32
2021/03/07 04:00:51;;;;;;;14.70;6.50;;;-4.30;43.80;;;;;;4345645;32;20167;-33
2021/03/07 04:03:18;;;;;;;10.37;4.30;;;-4.30;43.90;;;;;;4344824;32;21235;-40
2021/03/07 04:05:47;;;;;;;11.03;5.63;;;-4.40;44.10;;;;;;4332975;32;20050;-37
2021/03/07 04:08:17;;;;;;;11.03;4.93;;;-4.30;44.40;;;;;;4345336;32;20107;-33
2021/03/07 04:10:44;;;;;;;12.57;5.93;;;-4.40;44.70;;;;;;4359396;32;20062;-33
2021/03/07 04:13:21;;;;;;;10.80;5.03;;;-4.40;45.00;;;;;;4347646;32;20078;-33
2021/03/07 04:15:47;;;;;;;6.67;4.43;;;-4.40;45.10;;;;;;4360689;32;20138;-33
2021/03/07 04:18:15;;;;;;;8.80;3.90;;;-4.40;45.50;;;;;;4372061;32;20097;-34
2021/03/07 04:20:43;;;;;;;11.47;6.20;;;-4.30;45.40;;;;;;4359618;32;20514;-36
2021/03/07 04:23:10;;;;;;;13.67;4.60;;;-4.20;45.30;;;;;;4331916;32;20078;-32
2021/03/07 04:25:37;;;;;;;7.73;4.20;;;-4.10;45.20;;;;;;4356894;32;20155;-33
2021/03/07 04:28:05;;;;;;;5.47;1.90;;;-4.00;45.10;;;;;;4344578;32;20062;-33
2021/03/07 04:30:32;;;;;;;15.33;4.97;;;-3.90;45.00;;;;;;4344382;32;20059;-33
2021/03/07 04:32:59;;;;;;;9.43;3.80;;;-3.70;45.00;;;;;;4344534;32;20146;-32
2021/03/07 04:35:26;;;;;;;8.47;3.87;;;-3.50;45.10;;;;;;4362642;32;20136;-33
2021/03/07 04:37:56;;;;;;;9.00;4.97;;;-3.40;45.10;;;;;;4358054;32;20505;-33
2021/03/07 04:40:22;;;;;;;13.80;6.47;;;-3.20;44.90;;;;;;4358966;32;20082;-34
2021/03/07 04:42:49;;;;;;;8.63;3.80;;;-3.10;44.70;;;;;;4347112;32;20073;-34
2021/03/07 04:45:16;;;;;;;10.80;4.80;;;-2.90;44.70;;;;;;4359575;32;20058;-36
2021/03/07 04:47:43;;;;;;;10.87;6.17;;;-2.90;44.60;;;;;;4371969;32;20066;-34
2021/03/07 04:50:14;;;;;;;12.27;5.33;;;-2.70;44.50;;;;;;4371618;32;20101;-35
2021/03/07 04:52:41;;;;;;;9.87;3.77;;;-2.60;45.00;;;;;;4359572;32;20565;-34
2021/03/07 04:55:09;;;;;;;7.60;5.13;;;-2.50;44.40;;;;;;4387195;32;20054;-39
2021/03/07 04:57:35;;;;;;;9.90;5.37;;;-2.40;44.30;;;;;;4374973;32;20134;-34
2021/03/07 05:00:07;;;;;;;9.37;4.63;;;-2.30;43.90;;;;;;4374933;32;20545;-39
2021/03/07 05:02:33;;;;;;;9.97;5.23;;;-2.20;43.60;;;;;;4375794;32;20065;-34
2021/03/07 05:05:00;;;;;;;10.60;5.77;;;-2.20;43.50;;;;;;4356477;32;20066;-34
2021/03/07 05:07:27;;;;;;;7.73;3.93;;;-2.10;43.60;;;;;;4319903;32;20063;-34
2021/03/07 05:09:53;;;;;;;11.13;6.37;;;-2.00;43.60;;;;;;4356589;32;20078;-34
2021/03/07 05:12:20;;;;;;;9.07;5.33;;;-1.90;43.30;;;;;;4344175;32;20145;-33
2021/03/07 05:14:46;;;;;;;14.87;6.90;;;-1.80;42.60;;;;;;4331903;32;20540;-34
2021/03/07 05:17:13;;;;;;;13.47;5.70;;;-1.60;42.60;;;;;;4328749;33;20075;-34
2021/03/07 05:19:39;;;;;;;10.23;6.33;;;-1.60;42.40;;;;;;4284841;33;20072;-34
2021/03/07 05:22:06;;;;;;;10.67;4.93;;;-1.40;42.10;;;;;;4296582;33;20064;-34
2021/03/07 05:24:33;;;;;;;16.90;7.80;;;-1.40;41.50;;;;;;4296904;33;20076;-41
2021/03/07 05:27:05;;;;;;;17.53;7.67;;;-1.40;41.30;;;;;;4297517;33;20064;-34
2021/03/07 05:29:34;;;;;;;14.77;6.83;;;-1.40;41.00;;;;;;4297024;33;20090;-34
2021/03/07 05:32:01;;;;;;;16.17;8.27;;;-1.40;41.00;;;;;;4268203;33;20064;-36
2021/03/07 05:34:28;;;;;;;14.63;7.13;;;-1.30;41.00;;;;;;4268219;33;20087;-35
2021/03/07 05:36:55;;;;;;;10.67;6.77;;;-1.20;41.30;;;;;;4244900;33;20072;-35
2021/03/07 05:39:22;;;;;;;13.23;6.77;;;-1.00;41.20;;;;;;4245016;33;20229;-35
2021/03/07 05:41:49;;;;;;;13.10;5.83;;;-0.80;40.80;;;;;;4255452;33;20082;-35
2021/03/07 05:44:16;;;;;;;8.77;4.50;;;-0.50;41.00;;;;;;4311689;33;20196;-35
2021/03/07 05:46:43;;;;;;;11.03;6.10;;;-0.30;40.50;;;;;;4311420;33;20766;-34
2021/03/07 05:49:09;;;;;;;12.80;7.23;;;0.00;40.40;;;;;;4309848;33;20147;-38
2021/03/07 05:51:36;;;;;;;13.93;5.93;;;0.30;40.00;;;;;;4325439;33;20578;-36
2021/03/07 05:54:03;;;;;;;10.80;5.53;;;0.60;39.60;;;;;;4328994;33;20077;-37
2021/03/07 05:56:30;;;;;;;8.70;4.43;;;1.00;39.10;;;;;;4296698;33;20142;-35
2021/03/07 05:58:57;;;;;;;10.00;4.97;;;1.30;38.70;;;;;;4296828;33;20146;-35
2021/03/07 06:01:23;;;;;;;17.93;7.10;;;1.60;37.80;;;;;;4296682;33;20056;-35
2021/03/07 06:03:50;;;;;;;11.10;6.13;;;1.90;37.10;;;;;;4296926;33;20078;-34
2021/03/07 06:06:16;;;;;;;10.03;3.97;;;2.10;37.20;;;;;;4296622;33;20528;-36
2021/03/07 06:08:43;;;;;;;8.57;4.47;;;2.40;37.20;;;;;;4304721;33;20581;-35
2021/03/07 06:11:29;;;;;;;16.23;5.70;;;2.70;35.40;;;;;;4328402;33;20157;-35
2021/03/07 06:13:56;;;;;;;7.63;5.30;;;2.90;34.70;;;;;;4330437;33;20105;-38
2021/03/07 06:16:22;;;;;;;23.13;6.13;;;3.20;34.60;;;;;;4328365;33;20089;-36
2021/03/07 06:18:50;;;;;;;10.87;4.53;;;3.40;34.10;;;;;;4328581;33;20195;-36
2021/03/07 06:21:33;;;;;;;11.30;5.37;;;3.70;33.90;;;;;;4328550;33;20166;-38
2021/03/07 06:24:00;;;;;;;11.10;4.90;;;3.90;33.20;;;;;;4341040;33;20208;-37
2021/03/07 06:26:27;;;;;;;18.00;4.70;;;4.20;33.00;;;;;;4349518;32;20085;-36
2021/03/07 06:29:08;;;;;;;13.43;4.83;;;4.50;32.60;;;;;;4402834;32;20068;-36
2021/03/07 06:31:35;;;;;;;10.07;4.13;;;4.70;32.20;;;;;;4364157;32;20061;-35
2021/03/07 06:34:02;;;;;;;9.73;4.13;;;5.00;31.90;;;;;;4388584;32;20541;-36
2021/03/07 06:36:29;;;;;;;15.73;5.13;;;5.30;31.30;;;;;;4389271;32;20053;-37
2021/03/07 06:38:58;;;;;;;21.00;4.80;;;5.50;31.00;;;;;;4403360;32;20069;-38
2021/03/07 06:41:29;;;;;;;10.10;3.80;;;5.80;30.80;;;;;;4388862;32;20072;-37
2021/03/07 06:44:17;;;;;;;13.03;3.73;;;6.10;30.30;;;;;;4403310;32;20138;-39
2021/03/07 06:46:46;;;;;;;6.03;3.53;;;6.40;30.00;;;;;;4402635;32;20521;-39
2021/03/07 06:49:29;;;;;;;10.67;4.20;;;6.70;29.90;;;;;;4388658;32;20057;-37
2021/03/07 06:52:19;;;;;;;18.67;5.27;;;6.90;29.60;;;;;;4369929;32;20062;-37
2021/03/07 06:55:11;;;;;;;9.10;4.60;;;7.10;29.20;;;;;;4360638;32;20078;-35
2021/03/07 06:57:38;;;;;;;20.67;4.27;;;7.40;29.20;;;;;;4370468;32;20171;-44
2021/03/07 07:00:06;;;;;;;9.50;4.13;;;7.70;29.10;;;;;;4370847;32;20522;-38
2021/03/07 07:02:33;;;;;;;10.03;2.60;;;7.90;28.70;;;;;;4360902;32;20102;-37
2021/03/07 07:04:59;;;;;;;16.17;2.83;;;8.00;28.10;;;;;;4360522;32;20190;-38
2021/03/07 07:07:26;;;;;;;9.37;3.47;;;8.20;28.20;;;;;;4372875;32;20066;-36
2021/03/07 07:10:03;;;;;;;8.60;2.43;;;8.30;28.30;;;;;;4350863;32;20184;-36
2021/03/07 07:12:30;;;;;;;8.80;3.67;;;8.40;27.70;;;;;;4357953;32;20588;-36
2021/03/07 07:15:25;;;;;;;5.93;2.43;;;8.40;27.60;;;;;;4345512;32;20474;-36
2021/03/07 07:17:52;;;;;;;7.62;2.92;;;8.50;27.70;;;;;;4348335;32;20090;-37
2021/03/07 07:20:19;;;;;;;7.47;2.70;;;8.50;27.40;;;;;;4358161;32;20074;-36
2021/03/07 07:22:45;;;;;;;10.20;3.00;;;8.60;27.20;;;;;;4371991;32;20488;-36
2021/03/07 07:25:12;;;;;;;14.27;3.00;;;8.50;27.00;;;;;;4345387;32;20191;-37
2021/03/07 07:27:39;;;;;;;5.87;2.73;;;8.50;27.10;;;;;;4346007;32;20071;-39
2021/03/07 07:30:06;;;;;;;14.97;3.13;;;8.40;27.00;;;;;;4345293;32;20085;-37
2021/03/07 07:32:41;;;;;;;10.07;3.23;;;8.40;26.90;;;;;;4345485;32;20082;-37
2021/03/07 07:35:25;;;;;;;15.95;3.45;;;8.40;26.90;;;;;;4345570;32;20074;-36
2021/03/07 07:38:01;;;;;;;6.27;2.57;;;8.40;27.00;;;;;;4345239;32;20177;-36
2021/03/07 07:40:41;;;;;;;12.43;3.67;;;8.50;27.00;;;;;;4333232;32;20554;-36
2021/03/07 07:43:08;;;;;;;4.43;1.90;;;8.50;26.80;;;;;;4334332;32;20081;-38
2021/03/07 07:45:35;;;;;;;19.27;2.70;;;8.50;26.80;;;;;;4357652;32;20061;-37
2021/03/07 07:48:02;;;;;;;10.10;2.20;;;8.50;26.60;;;;;;4345244;32;20101;-38
2021/03/07 07:50:31;;;;;;;13.87;3.63;;;8.50;26.90;;;;;;4345246;32;20066;-37
2021/03/07 07:52:59;;;;;;;9.43;2.63;;;8.50;26.80;;;;;;4357586;32;20549;-38
2021/03/07 07:55:53;;;;;;;5.50;2.43;;;8.60;26.90;;;;;;4345717;32;20534;-40
2021/03/07 07:58:35;;;;;;;13.43;3.23;;;8.60;26.40;;;;;;4359946;32;20069;-37
2021/03/07 08:01:02;;;;;;;22.17;3.37;;;8.60;26.40;;;;;;4360162;32;20097;-37
2021/03/07 08:03:46;;;;;;;9.43;3.67;;;8.50;26.50;;;;;;4359734;32;20081;-38
2021/03/07 08:06:22;;;;;;;9.90;3.47;;;8.50;26.50;;;;;;4358344;32;20155;-36
2021/03/07 08:08:49;;;;;;;17.60;4.63;;;8.40;26.20;;;;;;4354819;32;20074;-36
2021/03/07 08:11:18;;;;;;;12.70;3.70;;;8.30;26.40;;;;;;4342113;32;20059;-35
2021/03/07 08:13:52;;;;;;;13.47;3.50;;;8.30;26.40;;;;;;4326565;33;20074;-38
2021/03/07 08:16:44;;;;;;;9.77;4.90;;;8.30;26.50;;;;;;4327872;33;20070;-36
2021/03/07 08:19:15;;;;;;;22.97;4.97;;;8.40;26.40;;;;;;4327961;33;20078;-41
2021/03/07 08:21:59;;;;;;;13.83;4.47;;;8.40;26.80;;;;;;4327461;33;20067;-36
2021/03/07 08:24:56;;;;;;;8.07;3.13;;;8.60;26.80;;;;;;4315343;33;20575;-36
2021/03/07 08:27:49;;;;;;;6.97;3.37;;;8.70;26.60;;;;;;4303042;33;20534;-37
2021/03/07 08:30:16;;;;;;;11.87;4.70;;;8.80;26.60;;;;;;4296591;33;20063;-39
2021/03/07 08:32:44;;;;;;;19.07;3.83;;;8.80;26.10;;;;;;4274465;33;20103;-36
2021/03/07 08:35:12;;;;;;;9.23;2.87;;;8.80;26.30;;;;;;4274510;33;20540;-36
2021/03/07 08:37:39;;;;;;;13.27;2.90;;;8.80;26.60;;;;;;4286296;33;20162;-37
2021/03/07 08:40:33;;;;;;;19.87;3.60;;;8.80;26.50;;;;;;4286072;33;20576;-36
2021/03/07 08:43:22;;;;;;;4.60;2.33;;;8.80;26.60;;;;;;4286239;33;20569;-39
2021/03/07 08:46:10;;;;;;;10.97;3.80;;;8.90;26.70;;;;;;4315578;33;20063;-35
2021/03/07 08:48:38;;;;;;;7.70;3.67;;;8.90;26.30;;;;;;4327142;33;20563;-37
2021/03/07 08:51:05;;;;;;;10.50;3.10;;;8.90;26.20;;;;;;4283073;33;20166;-35
2021/03/07 08:53:34;;;;;;;6.87;3.43;;;8.90;26.40;;;;;;4271577;33;20088;-36
2021/03/07 08:56:01;;;;;;;15.33;3.67;;;9.00;27.20;;;;;;4272089;33;20119;-39
2021/03/07 08:58:28;;;;;;;6.67;3.30;;;9.30;26.70;;;;;;4285434;33;20507;-38
2021/03/07 09:00:56;;;;;;;12.10;3.77;;;9.50;26.40;;;;;;4297697;33;20159;-41
2021/03/07 09:03:24;;;;;;;6.70;2.23;;;9.70;26.20;;;;;;4297456;33;20441;-41
2021/03/07 09:05:51;;;;;;;8.90;3.00;;;9.90;26.00;;;;;;4268788;33;20072;-38
2021/03/07 09:08:26;;;;;;;8.60;2.80;;;10.00;26.00;;;;;;4245245;33;20093;-40
2021/03/07 09:10:55;;;;;;;6.00;2.80;;;10.10;25.50;;;;;;4256253;33;20103;-38
2021/03/07 09:13:24;;;;;;;8.20;3.43;;;10.10;25.40;;;;;;4268837;33;20072;-38
2021/03/07 09:15:56;;;;;;;10.03;3.73;;;10.10;25.50;;;;;;4268640;33;20100;-40
2021/03/07 09:18:32;;;;;;;15.80;3.63;;;10.20;25.60;;;;;;4268679;33;20627;-38
2021/03/07 09:21:07;;;;;;;14.07;3.20;;;10.20;25.50;;;;;;4268954;33;20065;-38
2021/03/07 09:23:49;;;;;;;8.13;3.00;;;10.30;25.60;;;;;;4291725;33;20209;-40
2021/03/07 09:26:21;;;;;;;6.00;2.60;;;10.40;25.40;;;;;;4285759;33;20098;-38
2021/03/07 09:28:54;;;;;;;6.93;3.17;;;10.40;25.30;;;;;;4289929;33;20570;-41
2021/03/07 09:31:40;;;;;;;8.67;3.83;;;10.30;25.20;;;;;;4312088;33;20063;-41
2021/03/07 09:34:06;;;;;;;20.02;4.93;;;10.20;25.30;;;;;;4307066;33;20168;-37
2021/03/07 09:36:38;;;;;;;8.80;3.27;;;10.20;25.60;;;;;;4338053;32;20066;-39
2021/03/07 09:39:06;;;;;;;7.37;2.70;;;10.00;25.30;;;;;;4357074;32;20153;-40
2021/03/07 09:41:42;;;;;;;7.07;3.10;;;10.00;25.50;;;;;;4344843;32;20183;-37
2021/03/07 09:44:21;;;;;;;7.93;3.90;;;10.00;25.50;;;;;;4357430;32;20603;-40
2021/03/07 09:46:50;;;;;;;8.07;4.03;;;10.00;25.40;;;;;;4358832;32;20065;-45
2021/03/07 09:49:26;;;;;;;7.67;3.87;;;10.00;25.50;;;;;;4345118;32;20077;-39
2021/03/07 09:51:53;;;;;;;5.93;3.33;;;9.90;25.60;;;;;;4340705;33;20146;-36
2021/03/07 09:54:20;;;;;;;8.07;3.40;;;9.90;25.70;;;;;;4311154;33;20056;-37
2021/03/07 09:56:47;;;;;;;7.57;3.93;;;10.00;26.00;;;;;;4287726;33;20099;-39
2021/03/07 09:59:32;;;;;;;7.20;3.83;;;10.20;25.90;;;;;;4299784;33;20067;-41
2021/03/07 10:02:05;;;;;;;9.43;3.70;;;10.50;25.70;;;;;;4288129;33;20145;-40
2021/03/07 10:04:37;;;;;;;5.55;2.87;;;10.70;25.60;;;;;;4299928;33;20170;-38
2021/03/07 10:07:27;;;;;;;8.23;3.63;;;10.70;25.50;;;;;;4299143;33;20144;-40
2021/03/07 10:10:24;;;;;;;6.73;2.87;;;10.80;25.60;;;;;;4320915;33;20200;-38
2021/03/07 10:12:57;;;;;;;8.87;3.53;;;10.80;25.40;;;;;;4314721;33;20083;-39
2021/03/07 10:15:40;;;;;;;5.97;2.22;;;10.80;25.60;;;;;;4326261;33;20067;-36
2021/03/07 10:18:13;;;;;;;8.00;2.87;;;10.90;25.50;;;;;;4313727;33;20067;-36
2021/03/07 10:20:55;;;;;;;5.05;2.90;;;11.10;25.50;;;;;;4326000;33;20083;-35
2021/03/07 10:23:27;;;;;;;9.07;3.70;;;11.30;25.30;;;;;;4323688;33;20468;-37
2021/03/07 10:25:54;;;;;;;5.40;3.85;;;11.30;25.00;;;;;;4316314;33;20582;-39
2021/03/07 10:28:26;;;;;;;7.00;3.22;;;11.20;25.10;;;;;;4342028;32;20662;-42
2021/03/07 10:30:54;;;;;;;6.85;3.70;;;11.20;25.00;;;;;;4357734;32;20138;-40
2021/03/07 10:33:23;;;;;;;8.47;3.80;;;11.20;25.00;;;;;;4371123;32;20174;-41
2021/03/07 10:36:10;;;;;;;9.93;3.67;;;11.10;25.10;;;;;;4371024;32;20061;-40
2021/03/07 10:38:44;;;;;;;5.72;2.62;;;10.90;24.70;;;;;;4373151;32;20065;-38
2021/03/07 10:41:32;;;;;;;5.43;2.97;;;10.90;24.90;;;;;;4371511;32;20714;-38
2021/03/07 10:44:01;;;;;;;8.60;4.97;;;10.80;24.40;;;;;;4372906;32;20066;-37
2021/03/07 10:46:40;;;;;;;5.20;3.87;;;10.70;24.50;;;;;;4371492;32;20061;-37
2021/03/07 10:49:10;;;;;;;8.03;4.03;;;10.50;24.50;;;;;;4371441;32;20150;-38
2021/03/07 10:51:38;;;;;;;6.77;3.53;;;10.20;24.60;;;;;;4346336;32;20066;-38
2021/03/07 10:54:05;;;;;;;15.37;4.63;;;9.90;24.80;;;;;;4346714;32;20074;-37
2021/03/07 10:56:40;;;;;;;7.50;3.57;;;9.60;25.20;;;;;;4346169;32;20546;-39
2021/03/07 10:59:08;;;;;;;11.88;3.55;;;9.50;25.50;;;;;;4372677;32;20078;-37
2021/03/07 11:01:34;;;;;;;7.63;3.13;;;9.40;25.60;;;;;;4372983;32;20067;-37
2021/03/07 11:04:01;;;;;;;8.37;3.57;;;9.40;25.90;;;;;;4372367;32;20518;-37
2021/03/07 11:06:28;;;;;;;6.73;3.70;;;9.50;25.90;;;;;;4370791;32;20077;-37
2021/03/07 11:08:54;;;;;;;6.13;3.13;;;9.60;25.90;;;;;;4371370;32;20066;-37
2021/03/07 11:11:21;;;;;;;5.03;2.80;;;9.50;25.60;;;;;;4371216;32;20598;-38
2021/03/07 11:13:47;;;;;;;4.63;2.43;;;9.60;25.80;;;;;;4359405;32;20058;-36
2021/03/07 11:16:14;;;;;;;3.17;2.10;;;9.50;25.70;;;;;;4372486;32;20089;-36
2021/03/07 11:18:40;;;;;;;6.13;2.60;;;9.50;25.90;;;;;;4342335;32;20075;-37
2021/03/07 11:21:07;;;;;;;4.97;2.87;;;9.60;26.00;;;;;;4330729;32;20070;-37
2021/03/07 11:23:34;;;;;;;3.37;1.77;;;9.60;26.10;;;;;;4330483;32;20065;-36
2021/03/07 11:26:02;;;;;;;4.50;3.00;;;9.80;26.20;;;;;;4342907;32;20094;-38
2021/03/07 11:28:29;;;;;;;10.70;3.97;;;9.90;26.10;;;;;;4314818;33;20495;-38
2021/03/07 11:30:56;;;;;;;5.40;2.77;;;9.90;25.80;;;;;;4340577;32;20074;-41
2021/03/07 11:33:23;;;;;;;3.80;1.67;;;9.80;25.90;;;;;;4340398;32;20070;-38
2021/03/07 11:35:51;;;;;;;7.63;2.13;;;9.70;26.00;;;;;;4340719;32;20097;-37
2021/03/07 11:38:17;;;;;;;5.67;2.40;;;9.70;26.10;;;;;;4340169;33;20091;-37
2021/03/07 11:40:44;;;;;;;5.17;2.30;;;9.70;26.30;;;;;;4327715;33;21199;-37
2021/03/07 11:43:10;;;;;;;4.67;2.40;;;9.60;26.40;;;;;;4340185;32;20066;-41
2021/03/07 11:45:37;;;;;;;4.40;2.30;;;9.60;26.20;;;;;;4340058;32;20168;-38
2021/03/07 11:48:04;;;;;;;3.03;1.73;;;9.40;26.10;;;;;;4342408;32;20156;-38
2021/03/07 11:50:30;;;;;;;3.93;2.10;;;9.30;26.20;;;;;;4342098;33;20158;-40
2021/03/07 11:52:57;;;;;;;4.83;1.93;;;9.20;26.40;;;;;;4330460;33;20110;-37
2021/03/07 11:55:23;;;;;;;7.37;1.73;;;9.10;26.60;;;;;;4330498;33;20098;-38
2021/03/07 11:57:50;;;;;;;4.23;1.77;;;8.90;26.70;;;;;;4330844;33;20059;-37
2021/03/07 12:00:17;;;;;;;5.73;1.80;;;8.70;27.40;;;;;;4315346;33;20666;-36
2021/03/07 12:02:44;;;;;;;5.47;1.90;;;8.50;26.90;;;;;;4303595;33;20483;-37
2021/03/07 12:05:11;;;;;;;2.90;1.80;;;8.30;27.10;;;;;;4305817;33;20055;-37
2021/03/07 12:07:38;;;;;;;4.17;1.73;;;8.10;27.20;;;;;;4317738;33;20471;-37
2021/03/07 12:10:05;;;;;;;5.60;1.67;;;7.90;27.40;;;;;;4330018;33;20595;-36
2021/03/07 12:12:32;;;;;;;2.50;1.77;;;7.60;27.50;;;;;;4330007;33;20517;-37
2021/03/07 12:14:58;;;;;;;6.67;1.47;;;7.30;27.70;;;;;;4342363;33;20071;-38
2021/03/07 12:17:25;;;;;;;5.70;1.37;;;7.10;28.00;;;;;;4330451;33;20071;-40
2021/03/07 12:19:52;;;;;;;7.13;1.33;;;6.80;28.30;;;;;;4330419;33;20282;-38
2021/03/07 12:22:18;;;;;;;2.50;1.40;;;6.50;28.60;;;;;;4330014;33;20487;-36
2021/03/07 12:24:45;;;;;;;2.80;1.43;;;6.20;28.90;;;;;;4320502;32;20082;-36
2021/03/07 12:27:11;;;;;;;3.53;1.00;;;6.00;29.20;;;;;;4356826;32;20593;-37
2021/03/07 12:29:38;;;;;;;3.53;1.17;;;5.90;29.60;;;;;;4356704;32;20076;-37
2021/03/07 12:32:05;;;;;;;6.07;1.77;;;5.80;29.80;;;;;;4389199;32;20074;-36
2021/03/07 12:34:33;;;;;;;3.63;1.53;;;5.70;30.00;;;;;;4375613;32;20149;-40
2021/03/07 12:37:00;;;;;;;4.03;1.20;;;5.60;30.10;;;;;;4389239;32;20084;-38
2021/03/07 12:39:26;;;;;;;1.67;1.03;;;5.50;30.30;;;;;;4362928;32;20073;-38
2021/03/07 12:41:53;;;;;;;2.73;0.90;;;5.50;30.60;;;;;;4389360;32;20057;-37
2021/03/07 12:44:20;;;;;;;2.20;1.13;;;5.40;30.90;;;;;;4389383;32;20065;-38
2021/03/07 12:46:48;;;;;;;1.90;0.90;;;5.40;30.90;;;;;;4389433;32;20061;-36
2021/03/07 12:49:15;;;;;;;1.90;1.00;;;5.30;31.00;;;;;;4362952;32;20089;-37
2021/03/07 12:51:41;;;;;;;2.27;0.90;;;5.30;31.20;;;;;;4375038;32;20061;-37
2021/03/07 12:54:08;;;;;;;5.40;0.97;;;5.30;31.30;;;;;;4389009;32;20141;-36
2021/03/07 12:56:35;;;;;;;1.60;0.80;;;5.30;31.30;;;;;;4375274;32;20088;-37
2021/03/07 12:59:02;;;;;;;3.57;1.33;;;5.30;31.30;;;;;;4362417;32;20082;-36